Terminal Aerodrome Forecast
Issued by NWS Cleveland, OH

Home | Current Version | Previous Version | Graphics & Text | Print | Product List | Glossary On
Versions: 1 2 3 4 5 6 7 8 9 10 11 12 13 14 15 16 17 18
000
FTUS41 KCLE 061423 AAA
TAFERI
TAF AMD
KERI 061423Z 0614/0712 17007KT P6SM SCT050 BKN120
     FM062000 34006KT P6SM VCSH SCT050 BKN100
     FM070100 18006KT P6SM SCT100=

USA.gov is the U.S. government's official web portal to all federal, state and local government web resources and services.